createdAt,value
2019-01-16T00:04:08.698Z,2.20
2019-01-16T00:08:44.233Z,2.10
2019-01-16T00:11:24.006Z,2.40
2019-01-16T00:13:57.818Z,2.07
2019-01-16T00:16:37.538Z,1.90
2019-01-16T00:19:16.885Z,2.60
2019-01-16T00:21:50.726Z,2.07
2019-01-16T00:26:26.102Z,2.47
2019-01-16T00:29:07.861Z,2.70
2019-01-16T00:33:45.069Z,2.30
2019-01-16T00:36:32.799Z,2.57
2019-01-16T00:39:06.605Z,2.70
2019-01-16T00:41:46.493Z,2.73
2019-01-16T00:44:24.957Z,2.73
2019-01-16T00:47:07.761Z,2.70
2019-01-16T00:50:41.751Z,2.87
2019-01-16T00:54:17.409Z,2.63
2019-01-16T00:56:53.264Z,2.77
2019-01-16T00:59:41.961Z,2.50
2019-01-16T01:02:24.599Z,2.70
2019-01-16T01:05:04.465Z,3.00
2019-01-16T01:07:38.373Z,2.83
2019-01-16T01:10:14.217Z,2.60
2019-01-16T01:12:47.089Z,3.10
2019-01-16T01:15:26.973Z,2.27
2019-01-16T01:18:00.712Z,2.77
2019-01-16T01:20:34.856Z,3.23
2019-01-16T01:23:12.661Z,5.60
2019-01-16T01:25:52.313Z,9.80
2019-01-16T01:28:32.113Z,7.87
2019-01-16T01:31:08.805Z,5.10
2019-01-16T01:35:47.136Z,3.67
2019-01-16T01:38:26.825Z,3.57
2019-01-16T01:41:00.713Z,2.40
2019-01-16T01:43:36.396Z,2.53
2019-01-16T01:46:17.189Z,3.70
2019-01-16T01:48:49.937Z,2.97
2019-01-16T01:51:27.813Z,2.00
2019-01-16T01:54:12.761Z,1.60
2019-01-16T01:56:45.637Z,1.20
2019-01-16T02:01:20.869Z,1.10
2019-01-16T02:03:56.461Z,0.93
2019-01-16T02:06:45.227Z,1.40
2019-01-16T02:09:20.022Z,1.80
2019-01-16T02:13:58.368Z,1.60
2019-01-16T02:17:02.268Z,1.43
2019-01-16T02:19:36.096Z,1.10
2019-01-16T02:24:15.504Z,0.90
2019-01-16T02:26:57.288Z,1.33
2019-01-16T02:29:32.006Z,1.53
2019-01-16T02:32:07.863Z,1.57
2019-01-16T02:35:46.982Z,1.70
2019-01-16T02:40:24.580Z,2.27
2019-01-16T02:43:03.364Z,2.33
2019-01-16T02:46:09.229Z,1.77
2019-01-16T02:48:57.005Z,1.80
2019-01-16T02:51:30.184Z,1.97
2019-01-16T02:54:04.044Z,1.87
2019-01-16T02:58:43.776Z,1.70
2019-01-16T03:01:16.562Z,1.03
2019-01-16T03:03:50.332Z,1.57
2019-01-16T03:06:23.453Z,1.27
2019-01-16T03:09:04.248Z,2.47
2019-01-16T03:11:41.076Z,2.83
2019-01-16T03:14:21.205Z,3.20
2019-01-16T03:17:01.224Z,1.70
2019-01-16T03:19:51.199Z,1.87
2019-01-16T03:22:27.965Z,1.60
2019-01-16T03:25:03.665Z,1.47
2019-01-16T03:27:37.863Z,1.53
2019-01-16T03:30:12.277Z,1.70
2019-01-16T03:32:46.208Z,2.03
2019-01-16T03:35:25.368Z,3.10
2019-01-16T03:38:04.072Z,1.80
2019-01-16T03:41:12.948Z,1.57
2019-01-16T03:43:46.636Z,2.10
2019-01-16T03:46:22.295Z,1.70
2019-01-16T03:48:56.480Z,1.70
2019-01-16T03:53:35.898Z,2.10
2019-01-16T03:58:13.493Z,1.70
2019-01-16T04:02:53.892Z,1.80
2019-01-16T04:05:32.235Z,1.60
2019-01-16T04:08:06.384Z,2.30
2019-01-16T04:10:40.237Z,2.40
2019-01-16T04:13:16.219Z,1.90
2019-01-16T04:17:51.551Z,1.50
2019-01-16T04:20:28.216Z,2.10
2019-01-16T04:23:06.808Z,2.47
2019-01-16T04:25:47.651Z,3.87
2019-01-16T04:28:20.955Z,3.40
2019-01-16T04:31:09.111Z,3.23
2019-01-16T04:33:43.264Z,3.00
2019-01-16T04:36:18.209Z,2.93
2019-01-16T04:40:56.395Z,2.00
2019-01-16T04:45:33.083Z,2.17
2019-01-16T04:48:13.799Z,2.37
2019-01-16T04:50:47.735Z,2.90
2019-01-16T04:53:21.439Z,2.50
2019-01-16T04:55:55.900Z,2.43
2019-01-16T05:00:35.679Z,2.13
2019-01-16T05:03:13.724Z,2.03
2019-01-16T05:07:54.556Z,2.20
2019-01-16T05:10:34.498Z,2.40
2019-01-16T05:13:38.552Z,2.40
2019-01-16T05:16:14.187Z,2.73
2019-01-16T05:18:50.427Z,2.90
2019-01-16T05:22:29.500Z,3.00
2019-01-16T05:25:05.355Z,2.57
2019-01-16T05:28:13.667Z,3.87
2019-01-16T05:30:47.602Z,3.90
2019-01-16T05:33:37.355Z,4.03
2019-01-16T05:36:13.039Z,4.50
2019-01-16T05:39:53.407Z,4.10
2019-01-16T05:42:38.271Z,3.60
2019-01-16T05:47:16.897Z,4.80
2019-01-16T05:49:56.787Z,4.03
2019-01-16T05:52:30.726Z,4.27
2019-01-16T05:56:11.842Z,3.70
2019-01-16T05:58:48.833Z,3.27
2019-01-16T06:01:28.522Z,3.87
2019-01-16T06:04:02.446Z,4.07
2019-01-16T06:06:36.555Z,4.43
2019-01-16T06:09:19.217Z,4.40
2019-01-16T06:11:53.494Z,4.10
2019-01-16T06:14:30.551Z,4.20
2019-01-16T06:17:09.238Z,4.37
2019-01-16T06:19:44.297Z,4.70
2019-01-16T06:22:24.150Z,6.73
2019-01-16T06:26:59.653Z,7.27
2019-01-16T06:31:39.214Z,15.23
2019-01-16T06:34:13.382Z,15.50
2019-01-16T06:38:48.734Z,12.43
2019-01-16T06:41:38.374Z,13.13
2019-01-16T06:46:15.843Z,14.57
2019-01-16T06:49:00.694Z,15.40
2019-01-16T06:51:34.834Z,16.43
2019-01-16T06:54:10.936Z,12.40
2019-01-16T06:56:45.306Z,13.90
2019-01-16T07:01:20.870Z,14.97
2019-01-16T07:03:58.805Z,13.97
2019-01-16T07:06:34.022Z,16.33
2019-01-16T07:09:06.966Z,17.70
2019-01-16T07:11:49.838Z,16.97
2019-01-16T07:14:24.258Z,18.17
2019-01-16T07:17:00.276Z,20.57
2019-01-16T07:19:37.250Z,21.47
2019-01-16T07:22:13.371Z,21.50
2019-01-16T07:24:57.654Z,19.53
2019-01-16T07:28:03.642Z,21.07
2019-01-16T07:30:37.485Z,21.83
2019-01-16T07:33:12.218Z,28.70
2019-01-16T07:35:53.066Z,29.17
2019-01-16T07:38:35.901Z,24.17
2019-01-16T07:41:10.582Z,20.77
2019-01-16T07:43:44.790Z,23.07
2019-01-16T07:46:19.722Z,21.83
2019-01-16T07:50:59.318Z,22.37
2019-01-16T07:53:35.283Z,17.77
2019-01-16T07:57:12.961Z,19.47
2019-01-16T07:59:49.033Z,21.43
2019-01-16T08:02:25.157Z,22.63
2019-01-16T08:05:31.102Z,27.07
2019-01-16T08:08:12.753Z,27.53
2019-01-16T08:16:06.393Z,28.53
2019-01-16T08:33:47.737Z,23.07
2019-01-16T08:36:47.421Z,27.97
2019-01-16T08:39:43.837Z,30.05
2019-01-16T08:42:28.213Z,31.42
2019-01-16T08:48:31.341Z,35.27
2019-01-16T08:51:40.465Z,35.80
2019-01-16T10:10:32.428Z,19.20
2019-01-16T10:13:33.172Z,21.80
2019-01-16T10:16:42.540Z,20.32
2019-01-16T10:19:26.168Z,20.97
2019-01-16T11:07:36.103Z,19.10
2019-01-16T11:35:39.791Z,23.00
2019-01-16T11:38:25.726Z,21.10
2019-01-16T11:54:11.743Z,18.17
2019-01-16T11:56:50.659Z,16.60
2019-01-16T11:59:39.100Z,16.50
2019-01-16T12:02:17.635Z,19.17
2019-01-16T12:05:50.040Z,22.30
2019-01-16T12:08:23.439Z,22.05
2019-01-16T12:13:01.126Z,24.27
2019-01-16T12:15:34.199Z,19.17
2019-01-16T12:18:08.352Z,26.03
2019-01-16T12:20:44.211Z,21.20
2019-01-16T12:23:37.305Z,25.17
2019-01-16T12:28:12.910Z,25.90
2019-01-16T12:30:51.850Z,23.17
2019-01-16T12:33:57.015Z,20.27
2019-01-16T12:37:30.331Z,22.65
2019-01-16T12:40:16.255Z,23.42
2019-01-16T12:43:07.262Z,24.60
2019-01-16T12:45:41.183Z,24.77
2019-01-16T12:48:46.655Z,26.17
2019-01-16T12:51:22.371Z,23.38
2019-01-16T12:53:56.534Z,22.00
2019-01-16T12:56:29.591Z,20.23
2019-01-16T12:59:13.794Z,17.02
2019-01-16T13:01:48.667Z,16.73
2019-01-16T13:04:52.986Z,13.93
2019-01-16T13:07:40.941Z,13.72
2019-01-16T13:10:21.339Z,11.78
2019-01-16T13:15:03.094Z,11.95
2019-01-16T13:17:38.374Z,11.08
2019-01-16T13:20:12.477Z,12.03
2019-01-16T13:22:46.550Z,15.97
2019-01-16T13:25:20.707Z,18.00
2019-01-16T13:28:09.022Z,17.27
2019-01-16T13:30:43.235Z,16.65
2019-01-16T13:33:27.614Z,16.65
2019-01-16T13:36:01.683Z,16.55
2019-01-16T13:38:34.526Z,15.53
2019-01-16T13:41:27.475Z,15.67
2019-01-16T13:46:06.322Z,16.70
2019-01-16T13:48:42.454Z,21.30
2019-01-16T13:51:47.904Z,24.50
2019-01-16T13:54:22.006Z,23.47
2019-01-16T13:57:11.170Z,21.23
2019-01-16T13:59:50.202Z,23.23
2019-01-16T14:02:24.406Z,19.48
2019-01-16T14:05:00.803Z,20.40
2019-01-16T14:07:34.890Z,22.17
2019-01-16T14:10:10.418Z,24.47
2019-01-16T14:12:58.096Z,22.53
2019-01-16T14:16:43.530Z,22.27
2019-01-16T15:00:58.110Z,20.00
2019-01-16T15:04:07.966Z,21.00
2019-01-16T15:06:42.118Z,18.50
2019-01-16T15:09:17.342Z,24.85
2019-01-16T15:11:51.441Z,17.87
2019-01-16T15:14:35.825Z,20.13
2019-01-16T15:17:16.101Z,21.02
2019-01-16T15:23:03.421Z,19.42
2019-01-16T16:23:13.269Z,22.83
2019-01-16T16:26:21.735Z,19.90
2019-01-16T16:54:39.616Z,21.17
2019-01-16T16:59:15.043Z,21.53
2019-01-16T17:01:47.751Z,21.00
2019-01-16T17:04:22.331Z,22.35
2019-01-16T17:06:56.222Z,20.05
2019-01-16T17:09:30.019Z,21.90
2019-01-16T17:12:05.596Z,16.27
2019-01-16T17:14:50.227Z,18.05
2019-01-16T17:17:24.007Z,17.17
2019-01-16T17:20:02.823Z,18.07
2019-01-16T17:22:38.607Z,16.32
2019-01-16T17:25:16.375Z,18.40
2019-01-16T17:27:58.114Z,19.57
2019-01-16T17:30:42.084Z,17.57
2019-01-16T17:33:15.155Z,19.27
2019-01-16T17:35:50.786Z,18.17
2019-01-16T17:38:24.415Z,19.05
2019-01-16T17:41:04.383Z,20.97
2019-01-16T17:45:42.948Z,20.12
2019-01-16T17:49:19.110Z,22.32
2019-01-16T17:51:59.264Z,18.48
2019-01-16T17:54:34.877Z,19.07
2019-01-16T17:57:10.245Z,18.87
2019-01-16T18:00:41.309Z,17.80
2019-01-16T18:03:21.004Z,13.62
2019-01-16T18:06:08.624Z,16.93
2019-01-16T18:08:42.501Z,17.90
2019-01-16T18:11:22.307Z,16.10
2019-01-16T18:13:56.004Z,16.45
2019-01-16T18:18:33.632Z,18.32
2019-01-16T18:21:06.384Z,16.82
2019-01-16T18:25:41.800Z,18.30
2019-01-16T18:28:18.392Z,17.50
2019-01-16T18:30:56.031Z,17.97
2019-01-16T18:33:40.591Z,17.03
2019-01-16T18:36:14.088Z,15.95
2019-01-16T18:38:48.916Z,19.97
2019-01-16T18:41:30.424Z,14.90
2019-01-16T18:44:34.215Z,17.63
2019-01-16T18:49:10.155Z,17.77
2019-01-16T18:51:54.739Z,16.73
2019-01-16T18:54:30.416Z,15.75
2019-01-16T18:57:04.443Z,17.77
2019-01-16T18:59:40.090Z,15.05
2019-01-16T19:04:20.350Z,18.60
2019-01-16T19:06:54.879Z,12.25
2019-01-16T19:09:28.683Z,16.52
2019-01-16T19:12:01.372Z,15.58
2019-01-16T19:15:38.467Z,15.45
2019-01-16T19:19:13.355Z,20.77
2019-01-16T19:21:46.051Z,18.17
2019-01-16T19:24:21.816Z,18.03
2019-01-16T19:27:58.212Z,17.75
2019-01-16T19:30:34.015Z,15.95
2019-01-16T19:33:07.839Z,17.52
2019-01-16T19:35:45.563Z,16.17
2019-01-16T19:38:54.751Z,13.35
2019-01-16T19:41:28.635Z,17.55
2019-01-16T19:44:04.380Z,18.00
2019-01-16T19:46:40.114Z,18.77
2019-01-16T19:49:21.839Z,18.90
2019-01-16T19:53:04.697Z,20.27
2019-01-16T19:55:33.980Z,17.95
2019-01-16T19:58:10.728Z,20.12
2019-01-16T20:00:48.425Z,20.72
2019-01-16T20:03:22.240Z,22.60
2019-01-16T20:06:53.276Z,19.23
2019-01-16T20:11:33.973Z,18.47
2019-01-16T20:14:07.923Z,17.67
2019-01-16T20:16:46.646Z,18.73
2019-01-16T20:19:27.357Z,15.80
2019-01-16T20:24:05.765Z,16.17
2019-01-16T20:26:44.508Z,15.30
2019-01-16T20:29:18.549Z,16.85
2019-01-16T20:31:52.389Z,15.03
2019-01-16T20:34:28.076Z,16.75
2019-01-16T20:37:11.843Z,16.95
2019-01-16T20:39:50.426Z,16.95
2019-01-16T20:42:24.303Z,16.70
2019-01-16T20:45:04.919Z,16.73
2019-01-16T20:47:38.827Z,15.38
2019-01-16T20:51:20.391Z,13.43
2019-01-16T20:54:58.274Z,9.23
2019-01-16T20:57:33.954Z,15.50
2019-01-16T21:00:12.898Z,15.55
2019-01-16T21:02:46.649Z,14.80
2019-01-16T21:05:34.386Z,15.08
2019-01-16T21:08:08.230Z,15.48
2019-01-16T21:10:46.087Z,15.28
2019-01-16T21:13:19.791Z,14.60
2019-01-16T21:15:57.514Z,14.83
2019-01-16T21:20:34.990Z,16.00
2019-01-16T21:23:10.510Z,15.57
2019-01-16T21:25:44.807Z,14.33
2019-01-16T21:28:50.590Z,17.50
2019-01-16T21:31:39.258Z,13.87
2019-01-16T21:34:11.962Z,14.00
2019-01-16T21:36:49.786Z,16.15
2019-01-16T21:41:25.118Z,16.05
2019-01-16T21:44:06.154Z,14.53
2019-01-16T21:46:44.414Z,15.15
2019-01-16T21:49:25.666Z,14.77
2019-01-16T21:52:02.319Z,14.78
2019-01-16T21:54:42.202Z,13.78
2019-01-16T21:57:18.233Z,13.88
2019-01-16T21:59:54.101Z,14.53
2019-01-16T22:02:28.457Z,13.72
2019-01-16T22:07:06.858Z,13.45
2019-01-16T22:09:48.908Z,14.07
2019-01-16T22:13:26.662Z,14.30
2019-01-16T22:16:14.267Z,12.68
2019-01-16T22:20:51.527Z,12.80
2019-01-16T22:24:32.594Z,12.95
2019-01-16T22:27:13.038Z,11.03
2019-01-16T22:31:54.954Z,11.50
2019-01-16T22:35:33.829Z,10.10
2019-01-16T22:38:13.182Z,11.03
2019-01-16T22:40:51.037Z,10.70
2019-01-16T22:43:30.367Z,11.60
2019-01-16T22:46:06.158Z,9.23
2019-01-16T22:48:49.505Z,10.43
2019-01-16T22:51:23.594Z,10.72
2019-01-16T22:54:03.474Z,10.13
2019-01-16T22:56:43.274Z,8.97
2019-01-16T22:59:17.202Z,9.75
2019-01-16T23:02:08.178Z,10.15
2019-01-16T23:04:56.941Z,8.77
2019-01-16T23:07:32.698Z,8.38
2019-01-16T23:10:09.787Z,8.13
2019-01-16T23:14:49.582Z,8.87
2019-01-16T23:19:26.063Z,9.17
2019-01-16T23:22:01.522Z,10.50
2019-01-16T23:24:34.622Z,10.10
2019-01-16T23:29:11.105Z,9.80
2019-01-16T23:31:52.385Z,10.18
2019-01-16T23:34:27.414Z,9.43
2019-01-16T23:39:09.078Z,8.93
2019-01-16T23:43:45.517Z,8.53
2019-01-16T23:46:21.681Z,7.70
2019-01-16T23:49:01.781Z,8.87
2019-01-16T23:51:35.661Z,8.70
2019-01-16T23:54:10.377Z,9.04
2019-01-16T23:58:50.036Z,7.33
